sensor_id;sensor_type;location;lat;lon;timestamp;temperature;humidity
23124;DHT22;11731;48.592;8.858;2022-08-11T00:02:26;20.00;78.80
23124;DHT22;11731;48.592;8.858;2022-08-11T00:04:56;19.90;79.50
23124;DHT22;11731;48.592;8.858;2022-08-11T00:07:27;19.50;80.30
23124;DHT22;11731;48.592;8.858;2022-08-11T00:09:55;19.70;79.80
23124;DHT22;11731;48.592;8.858;2022-08-11T00:12:23;20.00;78.70
23124;DHT22;11731;48.592;8.858;2022-08-11T00:14:58;20.00;78.70
23124;DHT22;11731;48.592;8.858;2022-08-11T00:17:30;20.10;78.90
23124;DHT22;11731;48.592;8.858;2022-08-11T00:20:04;20.40;77.60
23124;DHT22;11731;48.592;8.858;2022-08-11T00:22:33;20.70;77.00
23124;DHT22;11731;48.592;8.858;2022-08-11T00:27:36;21.00;75.90
23124;DHT22;11731;48.592;8.858;2022-08-11T00:30:05;20.90;76.00
23124;DHT22;11731;48.592;8.858;2022-08-11T00:32:32;20.70;76.40
23124;DHT22;11731;48.592;8.858;2022-08-11T00:35:00;20.80;76.00
23124;DHT22;11731;48.592;8.858;2022-08-11T00:37:30;20.90;75.90
23124;DHT22;11731;48.592;8.858;2022-08-11T00:39:58;20.70;76.40
23124;DHT22;11731;48.592;8.858;2022-08-11T00:42:32;21.00;
23124;DHT22;11731;48.592;8.858;2022-08-11T00:45:12;20.90;75.90
23124;DHT22;11731;48.592;8.858;2022-08-11T00:47:55;20.50;76.50
23124;DHT22;11731;48.592;8.858;2022-08-11T00:50:36;20.00;78.50
23124;DHT22;11731;48.592;8.858;2022-08-11T00:53:29;20.60;76.90
23124;DHT22;11731;48.592;8.858;2022-08-11T00:59:32;20.90;76.10
23124;DHT22;11731;48.592;8.858;2022-08-11T01:02:13;20.90;75.80
23124;DHT22;11731;48.592;8.858;2022-08-11T01:05:10;20.80;77.00
23124;DHT22;11731;48.592;8.858;2022-08-11T01:08:12;20.80;76.00
23124;DHT22;11731;48.592;8.858;2022-08-11T01:11:01;20.70;76.50
23124;DHT22;11731;48.592;8.858;2022-08-11T01:13:48;20.50;77.00
23124;DHT22;11731;48.592;8.858;2022-08-11T01:16:50;20.50;77.00
23124;DHT22;11731;48.592;8.858;2022-08-11T01:19:45;20.70;76.60
23124;DHT22;11731;48.592;8.858;2022-08-11T01:29:22;20.40;77.50
23124;DHT22;11731;48.592;8.858;2022-08-11T01:32:24;20.70;76.80
23124;DHT22;11731;48.592;8.858;2022-08-11T01:38:37;19.90;78.10
23124;DHT22;11731;48.592;8.858;2022-08-11T01:41:32;19.90;78.80
23124;DHT22;11731;48.592;8.858;2022-08-11T01:44:52;20.00;78.20
23124;DHT22;11731;48.592;8.858;2022-08-11T01:47:33;20.10;78.00
23124;DHT22;11731;48.592;8.858;2022-08-11T01:50:31;20.00;78.30
23124;DHT22;11731;48.592;8.858;2022-08-11T01:53:08;20.20;77.80
23124;DHT22;11731;48.592;8.858;2022-08-11T01:55:46;20.10;78.20
23124;DHT22;11731;48.592;8.858;2022-08-11T01:58:22;20.00;78.40
23124;DHT22;11731;48.592;8.858;2022-08-11T02:00:57;19.50;79.70
23124;DHT22;11731;48.592;8.858;2022-08-11T02:03:34;19.80;79.10
23124;DHT22;11731;48.592;8.858;2022-08-11T02:06:12;20.20;78.10
23124;DHT22;11731;48.592;8.858;2022-08-11T02:09:03;20.20;77.80
23124;DHT22;11731;48.592;8.858;2022-08-11T02:11:36;20.30;77.60
23124;DHT22;11731;48.592;8.858;2022-08-11T02:14:17;20.30;77.80
23124;DHT22;11731;48.592;8.858;2022-08-11T02:16:52;20.30;77.50
23124;DHT22;11731;48.592;8.858;2022-08-11T02:19:25;20.20;78.00
23124;DHT22;11731;48.592;8.858;2022-08-11T02:22:24;20.20;78.10
23124;DHT22;11731;48.592;8.858;2022-08-11T02:25:22;19.70;79.20
23124;DHT22;11731;48.592;8.858;2022-08-11T02:27:57;19.80;78.90
23124;DHT22;11731;48.592;8.858;2022-08-11T02:30:31;19.70;79.20
23124;DHT22;11731;48.592;8.858;2022-08-11T02:33:12;19.70;79.20
23124;DHT22;11731;48.592;8.858;2022-08-11T02:35:56;19.40;80.00
23124;DHT22;11731;48.592;8.858;2022-08-11T02:38:29;19.40;80.30
23124;DHT22;11731;48.592;8.858;2022-08-11T02:41:02;19.70;79.70
23124;DHT22;11731;48.592;8.858;2022-08-11T02:44:06;20.00;78.80
23124;DHT22;11731;48.592;8.858;2022-08-11T02:46:44;20.10;78.80
23124;DHT22;11731;48.592;8.858;2022-08-11T02:49:23;19.90;79.10
23124;DHT22;11731;48.592;8.858;2022-08-11T02:52:24;19.30;80.40
23124;DHT22;11731;48.592;8.858;2022-08-11T02:55:12;19.50;80.40
23124;DHT22;11731;48.592;8.858;2022-08-11T02:57:48;19.70;79.70
23124;DHT22;11731;48.592;8.858;2022-08-11T03:00:18;19.70;79.90
23124;DHT22;11731;48.592;8.858;2022-08-11T03:02:52;19.80;79.30
23124;DHT22;11731;48.592;8.858;2022-08-11T03:05:31;19.70;80.10
23124;DHT22;11731;48.592;8.858;2022-08-11T03:08:12;19.50;80.40
23124;DHT22;11731;48.592;8.858;2022-08-11T03:10:48;19.40;80.20
23124;DHT22;11731;48.592;8.858;2022-08-11T03:13:42;19.20;80.60
23124;DHT22;11731;48.592;8.858;2022-08-11T03:16:40;19.00;81.40
23124;DHT22;11731;48.592;8.858;2022-08-11T03:19:17;19.20;81.10
23124;DHT22;11731;48.592;8.858;2022-08-11T03:21:47;19.20;81.40
23124;DHT22;11731;48.592;8.858;2022-08-11T03:24:20;19.10;81.50
23124;DHT22;11731;48.592;8.858;2022-08-11T03:26:52;19.00;81.90
23124;DHT22;11731;48.592;8.858;2022-08-11T03:29:27;18.80;82.60
23124;DHT22;11731;48.592;8.858;2022-08-11T03:32:00;18.50;84.50
23124;DHT22;11731;48.592;8.858;2022-08-11T03:34:30;18.80;82.90
23124;DHT22;11731;48.592;8.858;2022-08-11T03:37:18;18.70;82.60
23124;DHT22;11731;48.592;8.858;2022-08-11T03:40:19;18.60;83.80
23124;DHT22;11731;48.592;8.858;2022-08-11T03:43:09;18.60;83.50
23124;DHT22;11731;48.592;8.858;2022-08-11T03:45:50;18.60;83.80
23124;DHT22;11731;48.592;8.858;2022-08-11T03:48:28;18.60;83.30
23124;DHT22;11731;48.592;8.858;2022-08-11T03:51:08;18.70;83.00
23124;DHT22;11731;48.592;8.858;2022-08-11T03:53:49;18.80;82.80
23124;DHT22;11731;48.592;8.858;2022-08-11T03:59:33;18.30;84.60
23124;DHT22;11731;48.592;8.858;2022-08-11T04:05:43;17.80;85.80
23124;DHT22;11731;48.592;8.858;2022-08-11T04:08:30;18.00;85.60
23124;DHT22;11731;48.592;8.858;2022-08-11T04:11:24;18.10;85.50
23124;DHT22;11731;48.592;8.858;2022-08-11T04:14:26;18.30;84.80
23124;DHT22;11731;48.592;8.858;2022-08-11T04:18:04;18.50;84.50
23124;DHT22;11731;48.592;8.858;2022-08-11T04:20:55;18.60;83.90
23124;DHT22;11731;48.592;8.858;2022-08-11T04:27:10;18.40;84.60
23124;DHT22;11731;48.592;8.858;2022-08-11T04:29:50;18.40;84.70
23124;DHT22;11731;48.592;8.858;2022-08-11T04:32:35;18.30;84.80
23124;DHT22;11731;48.592;8.858;2022-08-11T04:35:18;18.50;84.40
23124;DHT22;11731;48.592;8.858;2022-08-11T04:38:22;17.90;86.50
23124;DHT22;11731;48.592;8.858;2022-08-11T04:41:17;18.20;86.10
23124;DHT22;11731;48.592;8.858;2022-08-11T04:44:30;18.20;85.80
23124;DHT22;11731;48.592;8.858;2022-08-11T04:47:13;18.40;85.40
23124;DHT22;11731;48.592;8.858;2022-08-11T04:50:19;18.40;85.30
23124;DHT22;11731;48.592;8.858;2022-08-11T04:53:21;18.90;84.20
23124;DHT22;11731;48.592;8.858;2022-08-11T04:56:14;19.10;83.60
23124;DHT22;11731;48.592;8.858;2022-08-11T04:59:12;19.30;83.30
23124;DHT22;11731;48.592;8.858;2022-08-11T05:05:20;18.80;84.10
23124;DHT22;11731;48.592;8.858;2022-08-11T05:11:11;19.30;83.70
23124;DHT22;11731;48.592;8.858;2022-08-11T05:13:47;19.30;83.70
23124;DHT22;11731;48.592;8.858;2022-08-11T05:16:39;19.50;83.20
23124;DHT22;11731;48.592;8.858;2022-08-11T05:19:25;19.40;83.70
23124;DHT22;11731;48.592;8.858;2022-08-11T05:22:11;19.50;83.10
23124;DHT22;11731;48.592;8.858;2022-08-11T05:25:00;19.70;82.70
23124;DHT22;11731;48.592;8.858;2022-08-11T05:27:55;19.60;83.20
23124;DHT22;11731;48.592;8.858;2022-08-11T05:30:43;19.50;83.50
23124;DHT22;11731;48.592;8.858;2022-08-11T05:33:33;19.70;83.10
23124;DHT22;11731;48.592;8.858;2022-08-11T05:36:26;19.60;83.50
23124;DHT22;11731;48.592;8.858;2022-08-11T05:38:59;19.70;83.10
23124;DHT22;11731;48.592;8.858;2022-08-11T05:41:45;19.40;83.90
23124;DHT22;11731;48.592;8.858;2022-08-11T05:44:31;19.60;83.70
23124;DHT22;11731;48.592;8.858;2022-08-11T05:47:23;19.70;83.50
23124;DHT22;11731;48.592;8.858;2022-08-11T05:50:10;19.90;83.10
23124;DHT22;11731;48.592;8.858;2022-08-11T05:52:55;20.00;82.90
23124;DHT22;11731;48.592;8.858;2022-08-11T05:55:41;20.20;82.60
23124;DHT22;11731;48.592;8.858;2022-08-11T05:58:26;20.10;83.00
23124;DHT22;11731;48.592;8.858;2022-08-11T06:00:59;20.10;83.00
23124;DHT22;11731;48.592;8.858;2022-08-11T06:03:28;20.00;83.20
23124;DHT22;11731;48.592;8.858;2022-08-11T06:05:56;20.30;82.80
23124;DHT22;11731;48.592;8.858;2022-08-11T06:08:28;20.30;82.80
23124;DHT22;11731;48.592;8.858;2022-08-11T06:10:59;20.00;83.70
23124;DHT22;11731;48.592;8.858;2022-08-11T06:13:27;20.10;83.50
23124;DHT22;11731;48.592;8.858;2022-08-11T06:15:55;19.80;84.60
23124;DHT22;11731;48.592;8.858;2022-08-11T06:18:24;20.40;83.00
23124;DHT22;11731;48.592;8.858;2022-08-11T06:20:53;20.80;82.20
23124;DHT22;11731;48.592;8.858;2022-08-11T06:23:22;21.00;81.40
23124;DHT22;11731;48.592;8.858;2022-08-11T06:25:51;21.00;81.80
23124;DHT22;11731;48.592;8.858;2022-08-11T06:28:27;20.70;82.40
23124;DHT22;11731;48.592;8.858;2022-08-11T06:30:56;20.90;82.00
23124;DHT22;11731;48.592;8.858;2022-08-11T06:33:33;20.50;83.20
23124;DHT22;11731;48.592;8.858;2022-08-11T06:36:03;20.90;82.80
23124;DHT22;11731;48.592;8.858;2022-08-11T06:38:52;21.40;81.50
23124;DHT22;11731;48.592;8.858;2022-08-11T06:41:24;21.90;80.30
23124;DHT22;11731;48.592;8.858;2022-08-11T06:44:04;22.00;80.10
23124;DHT22;11731;48.592;8.858;2022-08-11T06:46:34;22.20;79.40
23124;DHT22;11731;48.592;8.858;2022-08-11T06:49:05;22.30;79.10
23124;DHT22;11731;48.592;8.858;2022-08-11T06:51:53;22.40;79.20
23124;DHT22;11731;48.592;8.858;2022-08-11T06:54:20;22.40;78.90
23124;DHT22;11731;48.592;8.858;2022-08-11T06:56:47;22.40;79.00
23124;DHT22;11731;48.592;8.858;2022-08-11T06:59:33;22.20;79.50
23124;DHT22;11731;48.592;8.858;2022-08-11T07:02:23;22.00;80.20
23124;DHT22;11731;48.592;8.858;2022-08-11T07:05:02;22.10;80.10
23124;DHT22;11731;48.592;8.858;2022-08-11T07:08:07;22.10;80.70
23124;DHT22;11731;48.592;8.858;2022-08-11T07:14:10;22.40;80.10
23124;DHT22;11731;48.592;8.858;2022-08-11T07:16:57;22.60;79.30
23124;DHT22;11731;48.592;8.858;2022-08-11T07:19:27;22.80;79.40
23124;DHT22;11731;48.592;8.858;2022-08-11T07:22:17;23.00;78.50
23124;DHT22;11731;48.592;8.858;2022-08-11T07:25:17;23.10;78.20
23124;DHT22;11731;48.592;8.858;2022-08-11T07:28:06;22.90;78.30
23124;DHT22;11731;48.592;8.858;2022-08-11T07:30:56;23.10;78.00
23124;DHT22;11731;48.592;8.858;2022-08-11T07:33:29;23.30;77.10
23124;DHT22;11731;48.592;8.858;2022-08-11T07:35:59;23.30;77.10
23124;DHT22;11731;48.592;8.858;2022-08-11T07:38:33;23.70;76.70
23124;DHT22;11731;48.592;8.858;2022-08-11T07:41:09;23.90;75.70
23124;DHT22;11731;48.592;8.858;2022-08-11T07:43:37;24.10;75.50
23124;DHT22;11731;48.592;8.858;2022-08-11T07:46:06;24.00;75.70
23124;DHT22;11731;48.592;8.858;2022-08-11T07:48:51;24.20;75.50
23124;DHT22;11731;48.592;8.858;2022-08-11T07:51:37;24.20;75.20
23124;DHT22;11731;48.592;8.858;2022-08-11T07:54:24;24.40;74.60
23124;DHT22;11731;48.592;8.858;2022-08-11T07:56:58;24.60;74.50
23124;DHT22;11731;48.592;8.858;2022-08-11T07:59:25;24.60;73.50
23124;DHT22;11731;48.592;8.858;2022-08-11T08:02:11;24.60;74.40
23124;DHT22;11731;48.592;8.858;2022-08-11T08:04:57;24.50;74.40
23124;DHT22;11731;48.592;8.858;2022-08-11T08:07:42;24.50;74.10
23124;DHT22;11731;48.592;8.858;2022-08-11T08:10:28;24.50;73.90
23124;DHT22;11731;48.592;8.858;2022-08-11T08:13:14;24.40;74.40
23124;DHT22;11731;48.592;8.858;2022-08-11T08:16:00;24.80;73.30
23124;DHT22;11731;48.592;8.858;2022-08-11T08:18:45;24.70;73.20
23124;DHT22;11731;48.592;8.858;2022-08-11T08:21:13;24.90;72.50
23124;DHT22;11731;48.592;8.858;2022-08-11T08:24:00;25.00;72.10
23124;DHT22;11731;48.592;8.858;2022-08-11T08:29:28;25.10;71.40
23124;DHT22;11731;48.592;8.858;2022-08-11T08:32:16;25.50;70.70
23124;DHT22;11731;48.592;8.858;2022-08-11T08:34:47;25.10;71.50
23124;DHT22;11731;48.592;8.858;2022-08-11T08:37:20;25.10;71.90
23124;DHT22;11731;48.592;8.858;2022-08-11T08:39:49;25.00;71.30
23124;DHT22;11731;48.592;8.858;2022-08-11T08:42:19;25.20;70.90
23124;DHT22;11731;48.592;8.858;2022-08-11T08:44:53;25.30;71.00
23124;DHT22;11731;48.592;8.858;2022-08-11T08:47:24;25.30;69.80
23124;DHT22;11731;48.592;8.858;2022-08-11T08:49:59;25.40;70.50
23124;DHT22;11731;48.592;8.858;2022-08-11T08:52:30;25.50;70.10
23124;DHT22;11731;48.592;8.858;2022-08-11T08:55:03;25.50;69.00
23124;DHT22;11731;48.592;8.858;2022-08-11T08:57:41;25.60;68.90
23124;DHT22;11731;48.592;8.858;2022-08-11T09:03:12;25.40;68.90
23124;DHT22;11731;48.592;8.858;2022-08-11T09:05:40;25.60;69.40
23124;DHT22;11731;48.592;8.858;2022-08-11T09:08:07;25.90;68.90
23124;DHT22;11731;48.592;8.858;2022-08-11T09:10:35;26.00;68.30
23124;DHT22;11731;48.592;8.858;2022-08-11T09:13:04;25.70;67.30
23124;DHT22;11731;48.592;8.858;2022-08-11T09:15:33;25.70;67.40
23124;DHT22;11731;48.592;8.858;2022-08-11T09:18:02;25.70;67.20
23124;DHT22;11731;48.592;8.858;2022-08-11T09:20:38;25.90;67.50
23124;DHT22;11731;48.592;8.858;2022-08-11T09:23:06;26.10;66.00
23124;DHT22;11731;48.592;8.858;2022-08-11T09:25:54;26.20;66.30
23124;DHT22;11731;48.592;8.858;2022-08-11T09:28:41;26.10;66.20
23124;DHT22;11731;48.592;8.858;2022-08-11T09:31:10;26.00;66.30
23124;DHT22;11731;48.592;8.858;2022-08-11T09:33:38;26.10;66.50
23124;DHT22;11731;48.592;8.858;2022-08-11T09:36:08;26.20;66.20
23124;DHT22;11731;48.592;8.858;2022-08-11T09:38:59;26.40;65.80
23124;DHT22;11731;48.592;8.858;2022-08-11T09:41:44;26.90;64.30
23124;DHT22;11731;48.592;8.858;2022-08-11T09:44:12;26.60;64.00
23124;DHT22;11731;48.592;8.858;2022-08-11T09:46:57;26.40;64.80
23124;DHT22;11731;48.592;8.858;2022-08-11T09:49:25;26.10;64.80
23124;DHT22;11731;48.592;8.858;2022-08-11T09:51:55;26.20;66.10
23124;DHT22;11731;48.592;8.858;2022-08-11T09:54:23;26.40;65.70
23124;DHT22;11731;48.592;8.858;2022-08-11T09:56:51;26.70;65.20
23124;DHT22;11731;48.592;8.858;2022-08-11T09:59:36;27.00;63.90
23124;DHT22;11731;48.592;8.858;2022-08-11T10:02:07;26.90;63.90
23124;DHT22;11731;48.592;8.858;2022-08-11T10:04:56;26.90;63.10
23124;DHT22;11731;48.592;8.858;2022-08-11T10:08:02;26.70;63.20
23124;DHT22;11731;48.592;8.858;2022-08-11T10:10:34;26.90;62.20
23124;DHT22;11731;48.592;8.858;2022-08-11T10:13:04;26.80;61.60
23124;DHT22;11731;48.592;8.858;2022-08-11T10:15:32;26.60;63.00
23124;DHT22;11731;48.592;8.858;2022-08-11T10:18:06;27.10;62.20
23124;DHT22;11731;48.592;8.858;2022-08-11T10:20:54;27.30;61.80
23124;DHT22;11731;48.592;8.858;2022-08-11T10:23:25;27.40;60.90
23124;DHT22;11731;48.592;8.858;2022-08-11T10:26:28;27.20;60.60
23124;DHT22;11731;48.592;8.858;2022-08-11T10:29:13;26.90;61.50
23124;DHT22;11731;48.592;8.858;2022-08-11T10:31:59;26.90;61.50
23124;DHT22;11731;48.592;8.858;2022-08-11T10:34:47;27.00;61.00
23124;DHT22;11731;48.592;8.858;2022-08-11T10:37:18;27.20;60.60
23124;DHT22;11731;48.592;8.858;2022-08-11T10:39:49;27.40;59.50
23124;DHT22;11731;48.592;8.858;2022-08-11T10:42:16;27.90;59.40
23124;DHT22;11731;48.592;8.858;2022-08-11T10:45:03;27.50;61.20
23124;DHT22;11731;48.592;8.858;2022-08-11T10:47:53;27.50;61.00
23124;DHT22;11731;48.592;8.858;2022-08-11T10:50:20;27.60;59.00
23124;DHT22;11731;48.592;8.858;2022-08-11T10:53:07;27.90;58.60
23124;DHT22;11731;48.592;8.858;2022-08-11T10:55:54;28.10;58.50
23124;DHT22;11731;48.592;8.858;2022-08-11T10:58:39;28.00;58.70
23124;DHT22;11731;48.592;8.858;2022-08-11T11:01:20;28.10;59.30
23124;DHT22;11731;48.592;8.858;2022-08-11T11:03:57;28.00;59.50
23124;DHT22;11731;48.592;8.858;2022-08-11T11:06:28;28.20;59.40
23124;DHT22;11731;48.592;8.858;2022-08-11T11:09:01;28.30;59.50
23124;DHT22;11731;48.592;8.858;2022-08-11T11:11:34;28.10;59.70
23124;DHT22;11731;48.592;8.858;2022-08-11T11:14:21;28.30;59.80
23124;DHT22;11731;48.592;8.858;2022-08-11T11:17:11;28.50;59.00
23124;DHT22;11731;48.592;8.858;2022-08-11T11:19:58;28.50;58.40
23124;DHT22;11731;48.592;8.858;2022-08-11T11:22:28;28.20;58.80
23124;DHT22;11731;48.592;8.858;2022-08-11T11:25:12;28.10;58.40
23124;DHT22;11731;48.592;8.858;2022-08-11T11:27:53;28.10;58.40
23124;DHT22;11731;48.592;8.858;2022-08-11T11:30:29;28.30;58.40
23124;DHT22;11731;48.592;8.858;2022-08-11T11:33:03;28.20;58.40
23124;DHT22;11731;48.592;8.858;2022-08-11T11:35:42;28.30;58.70
23124;DHT22;11731;48.592;8.858;2022-08-11T11:38:10;28.50;57.90
23124;DHT22;11731;48.592;8.858;2022-08-11T11:40:38;28.50;57.60
23124;DHT22;11731;48.592;8.858;2022-08-11T11:43:07;28.50;57.80
23124;DHT22;11731;48.592;8.858;2022-08-11T11:45:35;28.70;57.80
23124;DHT22;11731;48.592;8.858;2022-08-11T11:48:05;28.90;57.40
23124;DHT22;11731;48.592;8.858;2022-08-11T11:51:07;28.40;57.20
23124;DHT22;11731;48.592;8.858;2022-08-11T11:53:49;28.40;57.20
23124;DHT22;11731;48.592;8.858;2022-08-11T11:56:18;28.20;56.70
23124;DHT22;11731;48.592;8.858;2022-08-11T11:58:47;28.10;56.60
23124;DHT22;11731;48.592;8.858;2022-08-11T12:01:43;28.10;56.20
23124;DHT22;11731;48.592;8.858;2022-08-11T12:04:27;28.50;55.70
23124;DHT22;11731;48.592;8.858;2022-08-11T12:06:54;28.50;56.00
23124;DHT22;11731;48.592;8.858;2022-08-11T12:09:43;28.80;56.00
23124;DHT22;11731;48.592;8.858;2022-08-11T12:12:12;28.80;55.40
23124;DHT22;11731;48.592;8.858;2022-08-11T12:15:09;28.90;55.40
23124;DHT22;11731;48.592;8.858;2022-08-11T12:17:51;28.90;54.50
23124;DHT22;11731;48.592;8.858;2022-08-11T12:20:18;29.00;54.50
23124;DHT22;11731;48.592;8.858;2022-08-11T12:22:46;29.10;54.30
23124;DHT22;11731;48.592;8.858;2022-08-11T12:25:31;29.00;54.40
23124;DHT22;11731;48.592;8.858;2022-08-11T12:28:12;28.90;55.40
23124;DHT22;11731;48.592;8.858;2022-08-11T12:30:41;29.20;54.90
23124;DHT22;11731;48.592;8.858;2022-08-11T12:33:12;29.40;54.80
23124;DHT22;11731;48.592;8.858;2022-08-11T12:35:40;29.30;55.00
23124;DHT22;11731;48.592;8.858;2022-08-11T12:38:08;29.40;54.90
23124;DHT22;11731;48.592;8.858;2022-08-11T12:40:37;29.40;55.60
23124;DHT22;11731;48.592;8.858;2022-08-11T12:43:23;29.40;55.50
23124;DHT22;11731;48.592;8.858;2022-08-11T12:46:17;29.20;55.20
23124;DHT22;11731;48.592;8.858;2022-08-11T12:48:48;29.00;55.70
23124;DHT22;11731;48.592;8.858;2022-08-11T12:51:35;29.00;55.60
23124;DHT22;11731;48.592;8.858;2022-08-11T12:54:26;28.90;54.80
23124;DHT22;11731;48.592;8.858;2022-08-11T12:57:00;28.60;55.00
23124;DHT22;11731;48.592;8.858;2022-08-11T12:59:46;28.60;55.00
23124;DHT22;11731;48.592;8.858;2022-08-11T13:02:33;28.90;55.30
23124;DHT22;11731;48.592;8.858;2022-08-11T13:05:19;29.20;54.90
23124;DHT22;11731;48.592;8.858;2022-08-11T13:07:47;29.10;55.00
23124;DHT22;11731;48.592;8.858;2022-08-11T13:10:16;29.10;54.70
23124;DHT22;11731;48.592;8.858;2022-08-11T13:13:07;29.50;53.80
23124;DHT22;11731;48.592;8.858;2022-08-11T13:15:36;29.40;53.70
23124;DHT22;11731;48.592;8.858;2022-08-11T13:18:05;29.40;54.10
23124;DHT22;11731;48.592;8.858;2022-08-11T13:20:47;29.40;54.00
23124;DHT22;11731;48.592;8.858;2022-08-11T13:23:15;29.80;53.60
23124;DHT22;11731;48.592;8.858;2022-08-11T13:25:42;30.00;53.80
23124;DHT22;11731;48.592;8.858;2022-08-11T13:28:15;30.10;53.70
23124;DHT22;11731;48.592;8.858;2022-08-11T13:30:48;30.00;53.90
23124;DHT22;11731;48.592;8.858;2022-08-11T13:33:34;29.90;53.10
23124;DHT22;11731;48.592;8.858;2022-08-11T13:36:04;29.80;54.10
23124;DHT22;11731;48.592;8.858;2022-08-11T13:38:34;30.00;53.50
23124;DHT22;11731;48.592;8.858;2022-08-11T13:41:03;30.20;53.90
23124;DHT22;11731;48.592;8.858;2022-08-11T13:46:47;30.70;52.40
23124;DHT22;11731;48.592;8.858;2022-08-11T13:52:27;30.10;52.60
23124;DHT22;11731;48.592;8.858;2022-08-11T13:58:35;30.30;52.70
23124;DHT22;11731;48.592;8.858;2022-08-11T14:05:47;30.30;52.40
23124;DHT22;11731;48.592;8.858;2022-08-11T14:07:45;30.60;52.40
23124;DHT22;11731;48.592;8.858;2022-08-11T14:10:30;30.60;52.30
23124;DHT22;11731;48.592;8.858;2022-08-11T14:13:00;30.50;51.40
23124;DHT22;11731;48.592;8.858;2022-08-11T14:15:47;30.50;51.50
23124;DHT22;11731;48.592;8.858;2022-08-11T14:18:18;30.50;51.80
23124;DHT22;11731;48.592;8.858;2022-08-11T14:20:49;30.60;52.10
23124;DHT22;11731;48.592;8.858;2022-08-11T14:23:47;30.70;52.00
23124;DHT22;11731;48.592;8.858;2022-08-11T14:26:17;30.70;51.70
23124;DHT22;11731;48.592;8.858;2022-08-11T14:28:54;30.80;52.40
23124;DHT22;11731;48.592;8.858;2022-08-11T14:31:23;30.70;52.20
23124;DHT22;11731;48.592;8.858;2022-08-11T14:33:53;30.60;51.90
23124;DHT22;11731;48.592;8.858;2022-08-11T14:36:22;30.40;52.60
23124;DHT22;11731;48.592;8.858;2022-08-11T14:38:54;30.40;53.10
23124;DHT22;11731;48.592;8.858;2022-08-11T14:41:22;30.40;52.70
23124;DHT22;11731;48.592;8.858;2022-08-11T14:44:08;30.70;52.70
23124;DHT22;11731;48.592;8.858;2022-08-11T14:46:54;30.90;52.60
23124;DHT22;11731;48.592;8.858;2022-08-11T14:49:35;31.10;52.60
23124;DHT22;11731;48.592;8.858;2022-08-11T14:52:26;31.40;52.20
23124;DHT22;11731;48.592;8.858;2022-08-11T14:55:04;31.50;51.50
23124;DHT22;11731;48.592;8.858;2022-08-11T14:57:51;31.40;52.60
23124;DHT22;11731;48.592;8.858;2022-08-11T15:00:18;31.20;52.00
23124;DHT22;11731;48.592;8.858;2022-08-11T15:02:47;31.20;52.00
23124;DHT22;11731;48.592;8.858;2022-08-11T15:05:35;31.10;52.50
23124;DHT22;11731;48.592;8.858;2022-08-11T15:08:04;31.00;52.60
23124;DHT22;11731;48.592;8.858;2022-08-11T15:10:33;31.10;52.10
23124;DHT22;11731;48.592;8.858;2022-08-11T15:13:01;31.60;51.70
23124;DHT22;11731;48.592;8.858;2022-08-11T15:15:29;31.80;51.90
23124;DHT22;11731;48.592;8.858;2022-08-11T15:18:16;31.80;51.60
23124;DHT22;11731;48.592;8.858;2022-08-11T15:20:46;31.70;51.30
23124;DHT22;11731;48.592;8.858;2022-08-11T15:23:30;31.60;51.20
23124;DHT22;11731;48.592;8.858;2022-08-11T15:26:20;31.60;51.30
23124;DHT22;11731;48.592;8.858;2022-08-11T15:29:08;31.50;51.50
23124;DHT22;11731;48.592;8.858;2022-08-11T15:31:54;31.60;51.70
23124;DHT22;11731;48.592;8.858;2022-08-11T15:34:39;32.10;51.00
23124;DHT22;11731;48.592;8.858;2022-08-11T15:37:26;32.00;51.30
23124;DHT22;11731;48.592;8.858;2022-08-11T15:40:02;31.90;51.30
23124;DHT22;11731;48.592;8.858;2022-08-11T15:42:55;31.90;52.00
23124;DHT22;11731;48.592;8.858;2022-08-11T15:45:43;32.10;51.60
23124;DHT22;11731;48.592;8.858;2022-08-11T15:48:18;32.20;51.40
23124;DHT22;11731;48.592;8.858;2022-08-11T15:50:51;32.20;51.50
23124;DHT22;11731;48.592;8.858;2022-08-11T15:53:24;32.30;50.50
23124;DHT22;11731;48.592;8.858;2022-08-11T15:55:55;32.20;50.90
23124;DHT22;11731;48.592;8.858;2022-08-11T15:58:29;32.20;51.00
23124;DHT22;11731;48.592;8.858;2022-08-11T16:01:15;32.10;51.00
23124;DHT22;11731;48.592;8.858;2022-08-11T16:04:13;32.00;50.90
23124;DHT22;11731;48.592;8.858;2022-08-11T16:07:07;32.10;50.60
23124;DHT22;11731;48.592;8.858;2022-08-11T16:09:38;32.10;50.60
23124;DHT22;11731;48.592;8.858;2022-08-11T16:12:08;32.00;50.80
23124;DHT22;11731;48.592;8.858;2022-08-11T16:14:41;32.30;50.30
23124;DHT22;11731;48.592;8.858;2022-08-11T16:17:29;32.60;50.40
23124;DHT22;11731;48.592;8.858;2022-08-11T16:20:18;32.90;50.60
23124;DHT22;11731;48.592;8.858;2022-08-11T16:23:16;33.00;49.60
23124;DHT22;11731;48.592;8.858;2022-08-11T16:25:44;33.30;49.80
23124;DHT22;11731;48.592;8.858;2022-08-11T16:28:13;33.10;49.30
23124;DHT22;11731;48.592;8.858;2022-08-11T16:30:44;32.90;49.60
23124;DHT22;11731;48.592;8.858;2022-08-11T16:33:12;32.60;49.60
23124;DHT22;11731;48.592;8.858;2022-08-11T16:35:39;32.60;50.40
23124;DHT22;11731;48.592;8.858;2022-08-11T16:38:26;32.60;50.20
23124;DHT22;11731;48.592;8.858;2022-08-11T16:41:06;33.00;50.10
23124;DHT22;11731;48.592;8.858;2022-08-11T16:43:38;32.90;49.90
23124;DHT22;11731;48.592;8.858;2022-08-11T16:46:26;32.90;50.30
23124;DHT22;11731;48.592;8.858;2022-08-11T16:49:14;33.00;49.70
23124;DHT22;11731;48.592;8.858;2022-08-11T16:51:42;33.10;50.30
23124;DHT22;11731;48.592;8.858;2022-08-11T16:54:09;32.80;50.00
23124;DHT22;11731;48.592;8.858;2022-08-11T16:56:41;32.60;50.30
23124;DHT22;11731;48.592;8.858;2022-08-11T16:59:14;32.50;50.40
23124;DHT22;11731;48.592;8.858;2022-08-11T17:04:44;32.80;50.20
23124;DHT22;11731;48.592;8.858;2022-08-11T17:07:30;33.00;49.50
23124;DHT22;11731;48.592;8.858;2022-08-11T17:10:34;33.20;50.10
23124;DHT22;11731;48.592;8.858;2022-08-11T17:13:22;33.20;49.60
23124;DHT22;11731;48.592;8.858;2022-08-11T17:15:54;33.40;49.50
23124;DHT22;11731;48.592;8.858;2022-08-11T17:18:41;33.30;49.60
23124;DHT22;11731;48.592;8.858;2022-08-11T17:21:14;33.50;49.60
23124;DHT22;11731;48.592;8.858;2022-08-11T17:23:44;34.00;48.90
23124;DHT22;11731;48.592;8.858;2022-08-11T17:29:10;34.20;48.50
23124;DHT22;11731;48.592;8.858;2022-08-11T17:31:38;34.40;49.00
23124;DHT22;11731;48.592;8.858;2022-08-11T17:34:23;35.00;48.60
23124;DHT22;11731;48.592;8.858;2022-08-11T17:37:09;35.40;48.20
23124;DHT22;11731;48.592;8.858;2022-08-11T17:39:37;35.60;48.00
23124;DHT22;11731;48.592;8.858;2022-08-11T17:42:05;35.50;47.90
23124;DHT22;11731;48.592;8.858;2022-08-11T17:44:50;36.00;47.40
23124;DHT22;11731;48.592;8.858;2022-08-11T17:47:35;36.50;47.00
23124;DHT22;11731;48.592;8.858;2022-08-11T17:50:20;37.00;46.70